Boulder City, Nevada Weather observations

Data are for observation ending at time listed.
 Day   Time    Ave.   Ave.  Ave.  Vector   Max.   Stn.    Total    Solar   Ave.  
  of    of     Air    Rel.  Wind   Wind    Wind   Baro.  Precip.   Rad.    Soil  
Year   Day     Temp.  Hum.  Speed  Dir.    Gust   Pres.                    Temp. 
2022   (PST)    F      %     mph   deg.    mph     mb.     in.     W/m2     F   
------------------------------------------------------------------------------
 226    4:10   81.1    54    1.9   212      2.9   933.0    0.00       0    85.6
 226    4:20   81.0    54    1.9   218      2.5   933.0    0.00       0    85.5
 226    4:30   80.7    55    0.4   334      1.5   933.1    0.00       0    85.4
 226    4:40   80.5    56    1.0     9      2.0   933.2    0.00       0    85.4
 226    4:50   80.3    59    0.4    24      2.0   933.2    0.00       0    85.3
 226    5:00   80.1    62    0.1    56      1.2   933.2    0.00       4    85.2
 226    5:10   80.0    64    0.0     0      0.0   933.3    0.00      14    85.1
 226    5:20   80.2    64    1.0   221      2.3   933.2    0.00      39    85.0
 226    5:30   80.4    64    2.1   233      2.8   933.2    0.00      60    84.9
 226    5:40   81.5    58    1.7   232      2.5   933.2    0.00     117    85.0
 226    5:50   83.8    51    1.0   221      1.8   933.4    0.00     134    84.9
 226    6:00   85.0    48    1.0   166      2.6   933.6    0.00     117    84.9
 226    6:10   86.3    46    0.8   201      2.0   933.7    0.00     223    85.0
 226    6:20   87.2    44    1.2   162      2.5   933.9    0.00     193    85.0
 226    6:30   86.9    45    1.7   145      3.3   934.0    0.00     222    85.2
 226    6:40   88.2    43    2.0   148      4.0   934.2    0.00     335    85.4
 226    6:50   87.4    45    2.1   154      4.6   934.4    0.00     202    85.6
 226    7:00   88.4    44    2.2   110      3.7   934.6    0.00     360    85.8
 226    7:10   89.7    44    1.4    25      3.2   934.7    0.00     359    86.0
 226    7:20   88.2    48    2.4     3      5.2   934.8    0.00     348    86.3
 226    7:30   87.3    50    3.1     1      5.6   934.8    0.00     397    86.6
 226    7:40   87.8    49    2.8    18      5.9   934.9    0.00     471    87.0
 226    7:50   88.3    47    2.8    12      6.4   934.9    0.00     504    87.3
 226    8:00   88.9    45    2.6    19      5.8   934.9    0.00     534    87.7
 226    8:10   89.3    44    2.2    13      4.7   935.0    0.00     569    88.2
 226    8:20   89.6    42    3.0    59      8.0   935.1    0.00     613    88.6
 226    8:30   91.3    39    2.2   113      6.9   935.2    0.00     656    89.1
 226    8:40   91.7    38    3.0   109      6.3   935.2    0.00     683    89.7
 226    8:50   91.9    37    4.8   102      8.8   935.2    0.00     692    90.3
 226    9:00   91.8    37    3.1    76      7.5   935.2    0.00     702    90.9
 226    9:10   92.9    35    3.8    99      7.2   935.3    0.00     720    91.6
 226    9:20   93.3    34    1.6    44      4.5   935.3    0.00     737    92.3
 226    9:30   92.6    35    2.8    44      7.5   935.3    0.00     627    93.0
 226    9:40   93.3    34    3.2   114      7.1   935.3    0.00     733    93.7
 226    9:50   93.5    34    3.3   164      9.3   935.3    0.00     618    94.5
 226   10:00   92.9    34    3.3   113      8.0   935.2    0.00     536    95.2
 226   10:10   93.2    34    2.8    66      7.5   935.1    0.00     419    96.0
 226   10:20   93.2    34    3.5    36      6.9   935.0    0.00     660    96.7
 226   10:30   94.3    33    3.3   102      9.1   934.9    0.00     721    97.4
 226   10:40   94.9    32    4.3   156     12.5   934.8    0.00     771    98.1
 226   10:50   94.9    32    4.5   178     10.6   934.7    0.00     934    98.8
 226   11:00   95.1    30    5.7   163     10.9   934.5    0.00     680    99.4
 226   11:10   95.4    30    5.3   180     10.0   934.4    0.00     613    100.0
 226   11:20   95.3    30    5.0   183      9.1   934.2    0.00     797    100.6
 226   11:30   96.3    28    5.9   154     11.0   934.0    0.00     723    101.0
 226   11:40   96.3    28    5.0   153     10.6   934.0    0.00     510    101.5
 226   11:50   96.3    28    5.4   165     10.6   933.8    0.00     647    101.9
 226   12:00   96.3    28    4.6   171      9.6   933.8    0.00     508    102.2
 226   12:10   95.0    29    4.0   205      9.6   933.7    0.00     220    102.5
 226   12:20   94.2    32    4.5   191      9.0   933.6    0.00     179    102.6
 226   12:30   92.8    33    3.5   195      9.0   933.4    0.00     168    102.6
 226   12:40   93.1    32    3.3   159      6.7   933.2    0.00     149    102.4
 226   12:50   93.5    30    3.2   179      9.7   933.0    0.00     135    101.9
 226   13:00   93.5    29    4.1   164      7.7   932.9    0.00     132    101.4
 226   13:10   93.5    30    6.1   186     12.0   932.9    0.00     154    100.9
 226   13:20   92.0    33    5.0   141      9.9   932.8    0.00     201    100.5
 226   13:30   92.0    32    3.9   167      7.0   932.7    0.00     248    100.1
 226   13:40   92.8    31    5.5   162      9.5   932.5    0.00     275    99.8
 226   13:50   93.4    30    6.0   166     11.2   932.3    0.00     334    99.4
 226   14:00   93.9    30    6.4   167     11.3   932.1    0.00     371    99.3
 226   14:10   93.9    31    6.4   154     10.7   932.0    0.00     365    99.1
 226   14:20   94.2    30    5.3   160      9.4   931.9    0.00     310    99.0
 226   14:30   94.3    29    4.9   160      9.9   932.0    0.00     305    98.9
 226   14:40   94.2    30    5.5   146     10.4   931.9    0.00     298    98.9
 226   14:50   94.7    29    5.3   142     11.0   931.6    0.00     281    98.9
 226   15:00   94.2    30    5.3   139      8.8   931.5    0.00     244    98.8
 226   15:10   94.2    29    4.7   180      9.2   931.5    0.00     207    98.8
 226   15:20   93.9    29    5.6   174     10.0   931.5    0.00     173    98.7
 226   15:30   93.8    29    4.4   187      8.3   931.5    0.00     148    98.6
 226   15:40   93.7    29    5.6   181      9.0   931.6    0.00     136    98.5
 226   15:50   93.4    29    4.7   194      8.6   931.6    0.00     130    98.3
 226   16:00   93.3    29    4.8   193      7.6   931.6    0.00     116    98.2
 226   16:10   93.1    29    4.4   181      8.4   931.6    0.00      91    98.0
 226   16:20   93.1    30    4.8   176      8.0   931.6    0.00      71    97.8
 226   16:30   93.0    29    5.3   191      8.1   931.6    0.00      56    97.6
 226   16:40   92.7    30    5.0   195      8.2   931.5    0.00      53    97.4
 226   16:50   92.5    30    5.1   194      9.0   931.3    0.00      57    97.2
 226   17:00   92.4    30    5.4   189      8.3   931.1    0.00      61    97.0
 226   17:10   92.2    32    4.7   197      8.2   931.0    0.00      71    96.7
 226   17:20   91.7    34    5.5   213      8.9   930.8    0.00      89    96.5
 226   17:30   91.3    34    5.8   204      9.1   930.8    0.00      80    96.3
 226   17:40   91.3    35    6.1   171     13.5   930.7    0.00      60    96.1
 226   17:50   89.2    38    6.9   133     12.3   930.7    0.00      39    95.9
 226   18:00   87.7    40    7.1   143     13.2   930.8    0.00      27    95.7
 226   18:10   87.3    41    5.7   148     11.0   930.8    0.00      17    95.5
 226   18:20   87.3    40    5.4   164     11.6   930.9    0.00      14    95.3
 226   18:30   87.5    40    6.1   159     12.0   931.1    0.00      12    95.0
 226   18:40   87.3    40    5.7   162     10.3   931.2    0.00       5    94.8
 226   18:50   87.1    40    5.3   153     12.5   931.3    0.00       0    94.6
 226   19:00   86.9    40    4.2   152     10.0   931.4    0.00       0    94.3
 226   19:10   86.6    40    6.1   159     11.0   931.5    0.00       0    94.1
 226   19:20   86.3    41    6.6   151     11.5   931.5    0.00       0    93.9
 226   19:30   86.2    41    3.6   128      6.4   931.6    0.00       0    93.7
 226   19:40   86.2    41    3.7    55     11.3   932.0    0.00       0    93.5
 226   19:50   86.3    41    7.4    22     13.4   932.7    0.00       0    93.2
 226   20:00   83.8    47    9.7    13     18.3   933.0    0.00       0    93.0
 226   20:10   81.5    53    6.9     9     13.8   933.0    0.00       0    92.8
 226   20:20   81.2    53    6.2     6     13.9   932.9    0.00       0    92.6
 226   20:30   81.4    53    5.5     9     11.1   932.9    0.00       0    92.4
 226   20:40   81.6    52    3.6    15      7.8   932.9    0.00       0    92.1
 226   20:50   81.6    53    2.4    24      5.6   932.8    0.00       0    91.9
 226   21:00   81.5    53    2.8    36      6.6   933.0    0.00       0    91.7
 226   21:10   81.5    53    3.3    84      6.6   933.1    0.00       0    91.5
 226   21:20   82.0    52    1.8    90      6.9   933.0    0.00       0    91.3
 226   21:30   81.7    52    2.4   109      6.0   933.1    0.00       0    91.1
 226   21:40   81.3    51    3.0   152      6.7   933.1    0.00       0    91.0
 226   21:50   80.3    54    7.6   170     13.1   933.2    0.00       0    90.8
 226   22:00   78.9    58    6.5   194     11.5   933.3    0.00       0    90.6
 226   22:10   78.8    58    4.7   190      7.2   933.7    0.00       0    90.4
 226   22:20   78.4    59    5.1   219      7.6   933.7    0.00       0    90.2
 226   22:30   78.5    57    3.3   228      8.6   933.8    0.00       0    90.0
 226   22:40   78.6    56    5.0   223      7.8   933.6    0.00       0    89.8
 226   22:50   77.4    64    4.7   233      7.0   933.4    0.02       0    89.6
 226   23:00   76.0    70    4.0   218      7.9   933.2    0.00       0    89.4
 226   23:10   76.6    68    7.4   206     10.8   932.3    0.00       0    89.2
 226   23:20   77.2    65    5.8   203      8.7   932.2    0.00       0    88.8
 226   23:30   77.2    64    4.1   223      8.7   932.3    0.00       0    88.6
 226   23:40   77.1    64    2.8   243      5.6   932.6    0.00       0    88.3
 226   23:50   77.2    62    5.0   237      7.7   932.5    0.00       0    87.9
 227    0:00   78.1    56    4.4   245      8.2   932.4    0.00       0    87.6
 227    0:10   78.0    57    1.3   265      4.2   932.4    0.00       0    87.3
 227    0:20   78.2    54    3.1   235      5.4   932.2    0.00       0    87.0
 227    0:30   78.1    55    3.3   247      4.5   932.1    0.00       0    86.7
 227    0:40   78.1    55    3.4   219      4.7   932.0    0.00       0    86.5
 227    0:50   78.4    53    3.9   226      5.6   931.8    0.00       0    86.2
 227    1:00   78.7    53    3.2   206      5.2   931.7    0.00       0    86.0
 227    1:10   78.7    54    2.6   178      5.8   931.8    0.00       0    85.7
 227    1:20   78.4    54    1.7   324      5.0   931.9    0.00       0    85.5
 227    1:30   77.9    56    1.2   333      3.4   932.0    0.00       0    85.3
 227    1:40   77.5    57    0.9    16      2.0   931.9    0.00       0    85.1
 227    1:50   77.2    60    0.4    51      2.0   931.9    0.00       0    85.0
 227    2:00   76.5    62    1.0     8      2.1   931.9    0.00       0    84.8
 227    2:10   76.4    64    0.6    29      1.6   931.9    0.00       0    84.7
 227    2:20   76.4    64    0.3   282      1.2   931.8    0.00       0    84.5
 227    2:30   76.3    64    1.6   233      2.5   931.6    0.00       0    84.4
 227    2:40   76.3    66    1.1   201      2.7   931.6    0.00       0    84.3
 227    2:50   76.5    64    0.2   280      1.7   931.6    0.00       0    84.2
 227    3:00   76.4    63    0.9   299      1.6   931.6    0.00       0    84.1
 227    3:10   76.5    63    0.1    33      0.7   931.4    0.00       0    84.1
 227    3:20   76.3    64    0.2    19      0.7   931.4    0.00       0    84.0
 227    3:30   76.2    64    0.9    13      3.0   931.4    0.00       0    83.9
 227    3:40   76.3    62    0.8    14      2.0   931.4    0.00       0    83.8
 227    3:50   76.7    60    1.0     9      3.1   931.4    0.00       0    83.7
 227    4:00   76.9    61    0.9    61      1.7   931.2    0.00       0    83.6

Return to Boulder City, Nevada graphs page.


Western Regional Climate Center,wrcc@dri.edu